createdAt,value
2018-08-10T00:00:22.019Z,19.80
2018-08-10T00:01:22.263Z,19.86
2018-08-10T00:02:22.506Z,19.84
2018-08-10T00:03:22.749Z,19.76
2018-08-10T00:04:22.995Z,19.74
2018-08-10T00:05:23.241Z,19.78
2018-08-10T00:06:23.481Z,19.66
2018-08-10T00:07:23.725Z,19.71
2018-08-10T00:08:23.968Z,19.65
2018-08-10T00:09:24.211Z,19.58
2018-08-10T00:10:24.454Z,19.63
2018-08-10T00:11:24.699Z,19.65
2018-08-10T00:12:24.943Z,19.58
2018-08-10T00:13:25.188Z,19.61
2018-08-10T00:14:25.433Z,19.63
2018-08-10T00:15:25.678Z,19.61
2018-08-10T00:16:25.924Z,19.62
2018-08-10T00:17:26.167Z,19.62
2018-08-10T00:18:26.412Z,19.55
2018-08-10T00:19:26.655Z,19.54
2018-08-10T00:20:26.899Z,19.61
2018-08-10T00:21:27.142Z,19.58
2018-08-10T00:22:27.387Z,19.56
2018-08-10T00:23:27.630Z,19.56
2018-08-10T00:24:27.874Z,19.59
2018-08-10T00:25:28.117Z,19.51
2018-08-10T00:26:28.362Z,19.56
2018-08-10T00:27:28.605Z,19.58
2018-08-10T00:28:28.853Z,19.63
2018-08-10T00:29:29.101Z,19.61
2018-08-10T00:30:29.341Z,19.55
2018-08-10T00:31:29.581Z,19.46
2018-08-10T00:32:29.827Z,19.54
2018-08-10T00:33:30.074Z,19.51
2018-08-10T00:34:30.318Z,19.55
2018-08-10T00:35:30.562Z,19.50
2018-08-10T00:36:30.806Z,19.46
2018-08-10T00:37:31.052Z,19.43
2018-08-10T00:38:31.295Z,19.41
2018-08-10T00:39:31.537Z,19.41
2018-08-10T00:40:31.782Z,19.32
2018-08-10T00:41:32.025Z,19.26
2018-08-10T00:42:32.270Z,19.36
2018-08-10T00:43:32.512Z,19.31
2018-08-10T00:44:32.759Z,19.26
2018-08-10T00:45:32.999Z,19.11
2018-08-10T00:46:33.245Z,19.07
2018-08-10T00:47:33.485Z,19.07
2018-08-10T00:48:33.729Z,18.94
2018-08-10T00:49:33.971Z,18.91
2018-08-10T00:50:34.215Z,18.91
2018-08-10T00:51:34.462Z,18.85
2018-08-10T00:52:34.701Z,18.80
2018-08-10T00:53:34.946Z,18.81
2018-08-10T00:54:35.188Z,18.88
2018-08-10T00:55:35.434Z,18.81
2018-08-10T00:56:35.675Z,18.78
2018-08-10T00:57:35.921Z,18.81
2018-08-10T00:58:36.164Z,18.70
2018-08-10T00:59:36.408Z,18.73
2018-08-10T01:00:36.652Z,18.72
2018-08-10T01:01:36.895Z,18.67
2018-08-10T01:02:37.140Z,18.63
2018-08-10T01:03:37.381Z,18.62
2018-08-10T01:04:37.625Z,18.51
2018-08-10T01:05:37.867Z,18.51
2018-08-10T01:06:38.114Z,18.50
2018-08-10T01:07:38.353Z,18.47
2018-08-10T01:08:38.596Z,18.48
2018-08-10T01:09:38.838Z,18.35
2018-08-10T01:10:39.083Z,18.39
2018-08-10T01:11:39.324Z,18.36
2018-08-10T01:12:39.572Z,18.37
2018-08-10T01:13:39.815Z,18.41
2018-08-10T01:14:40.058Z,18.33
2018-08-10T01:15:40.300Z,18.29
2018-08-10T01:16:40.544Z,18.30
2018-08-10T01:17:40.787Z,18.17
2018-08-10T01:18:41.031Z,18.21
2018-08-10T01:19:41.274Z,18.15
2018-08-10T01:20:41.527Z,18.20
2018-08-10T01:21:41.762Z,18.18
2018-08-10T01:22:42.007Z,18.21
2018-08-10T01:23:42.250Z,18.18
2018-08-10T01:24:42.495Z,18.17
2018-08-10T01:25:42.739Z,18.27
2018-08-10T01:26:42.982Z,18.11
2018-08-10T01:27:43.225Z,18.07
2018-08-10T01:28:43.481Z,18.08
2018-08-10T01:29:43.713Z,18.03
2018-08-10T01:30:43.958Z,17.97
2018-08-10T01:31:44.201Z,17.99
2018-08-10T01:32:44.443Z,18.03
2018-08-10T01:33:44.687Z,17.93
2018-08-10T01:34:44.932Z,17.95
2018-08-10T01:35:45.174Z,17.82
2018-08-10T01:36:45.419Z,17.90
2018-08-10T01:37:45.661Z,17.89
2018-08-10T01:38:45.901Z,17.87
2018-08-10T01:39:46.143Z,17.68
2018-08-10T01:40:46.388Z,17.77
2018-08-10T01:41:46.630Z,17.79
2018-08-10T01:42:46.876Z,17.70
2018-08-10T01:43:47.119Z,17.74
2018-08-10T01:44:47.361Z,17.77
2018-08-10T01:45:47.603Z,17.68
2018-08-10T01:46:47.846Z,17.68
2018-08-10T01:47:48.088Z,17.68
2018-08-10T01:48:48.332Z,17.52
2018-08-10T01:49:48.574Z,17.54
2018-08-10T01:50:48.817Z,17.52
2018-08-10T01:51:49.060Z,17.49
2018-08-10T01:52:49.302Z,17.51
2018-08-10T01:53:49.547Z,17.44
2018-08-10T01:54:49.789Z,17.46
2018-08-10T01:55:50.032Z,17.41
2018-08-10T01:56:50.273Z,17.40
2018-08-10T01:57:50.515Z,17.43
2018-08-10T01:58:50.758Z,17.48
2018-08-10T01:59:51.001Z,17.49
2018-08-10T02:00:51.245Z,17.54
2018-08-10T02:01:51.485Z,17.51
2018-08-10T02:02:51.729Z,17.49
2018-08-10T02:03:51.971Z,17.55
2018-08-10T02:04:52.209Z,17.48
2018-08-10T02:05:52.455Z,17.55
2018-08-10T02:06:52.698Z,17.54
2018-08-10T02:07:52.940Z,17.52
2018-08-10T02:08:53.181Z,17.51
2018-08-10T02:09:53.424Z,17.49
2018-08-10T02:10:53.665Z,17.37
2018-08-10T02:11:53.908Z,17.36
2018-08-10T02:12:54.151Z,17.31
2018-08-10T02:13:54.390Z,17.34
2018-08-10T02:14:54.632Z,17.36
2018-08-10T02:15:54.876Z,17.43
2018-08-10T02:16:55.117Z,17.43
2018-08-10T02:17:55.359Z,17.37
2018-08-10T02:18:55.601Z,17.43
2018-08-10T02:19:55.844Z,17.43
2018-08-10T02:20:56.088Z,17.43
2018-08-10T02:21:56.334Z,17.44
2018-08-10T02:22:56.572Z,17.43
2018-08-10T02:23:56.812Z,17.40
2018-08-10T02:24:57.055Z,17.40
2018-08-10T02:25:57.298Z,17.34
2018-08-10T02:26:57.537Z,17.40
2018-08-10T02:27:57.781Z,17.33
2018-08-10T02:28:58.022Z,17.34
2018-08-10T02:29:58.263Z,17.34
2018-08-10T02:30:58.505Z,17.34
2018-08-10T02:31:58.747Z,17.40
2018-08-10T02:32:58.991Z,17.36
2018-08-10T02:33:59.234Z,17.31
2018-08-10T02:34:59.474Z,17.33
2018-08-10T02:35:59.716Z,17.34
2018-08-10T02:36:59.957Z,17.30
2018-08-10T02:38:00.199Z,17.26
2018-08-10T02:39:00.441Z,17.30
2018-08-10T02:40:00.682Z,17.28
2018-08-10T02:41:00.925Z,17.26
2018-08-10T02:42:01.168Z,17.19
2018-08-10T02:43:01.419Z,17.31
2018-08-10T02:44:01.654Z,17.26
2018-08-10T02:45:01.898Z,17.30
2018-08-10T02:46:02.138Z,17.25
2018-08-10T02:47:02.380Z,17.26
2018-08-10T02:48:02.622Z,17.28
2018-08-10T02:49:02.868Z,17.28
2018-08-10T02:50:03.109Z,17.26
2018-08-10T02:51:03.349Z,17.26
2018-08-10T02:52:03.591Z,17.22
2018-08-10T02:53:03.832Z,17.26
2018-08-10T02:54:04.074Z,17.22
2018-08-10T02:55:04.316Z,17.31
2018-08-10T02:56:04.580Z,17.25
2018-08-10T02:57:04.800Z,17.25
2018-08-10T02:58:05.044Z,17.25
2018-08-10T02:59:05.285Z,17.28
2018-08-10T03:00:05.530Z,17.31
2018-08-10T03:01:05.770Z,17.25
2018-08-10T03:02:06.014Z,17.21
2018-08-10T03:03:06.256Z,17.19
2018-08-10T03:04:06.497Z,17.23
2018-08-10T03:05:06.741Z,17.16
2018-08-10T03:06:06.984Z,17.08
2018-08-10T03:07:07.227Z,17.06
2018-08-10T03:08:07.470Z,17.07
2018-08-10T03:09:07.712Z,16.97
2018-08-10T03:10:07.954Z,16.88
2018-08-10T03:11:08.197Z,16.89
2018-08-10T03:12:08.440Z,16.85
2018-08-10T03:13:08.679Z,16.83
2018-08-10T03:14:08.921Z,16.75
2018-08-10T03:15:09.162Z,16.85
2018-08-10T03:16:09.406Z,16.88
2018-08-10T03:17:09.648Z,16.82
2018-08-10T03:18:09.890Z,16.82
2018-08-10T03:19:10.133Z,16.85
2018-08-10T03:20:10.373Z,16.78
2018-08-10T03:21:10.614Z,16.73
2018-08-10T03:22:10.911Z,16.73
2018-08-10T03:23:11.100Z,16.61
2018-08-10T03:24:11.343Z,16.60
2018-08-10T03:25:11.585Z,16.58
2018-08-10T03:26:11.826Z,16.57
2018-08-10T03:27:12.069Z,16.56
2018-08-10T03:28:12.315Z,16.60
2018-08-10T03:29:12.555Z,16.50
2018-08-10T03:30:12.799Z,16.41
2018-08-10T03:31:13.039Z,16.38
2018-08-10T03:32:13.286Z,16.43
2018-08-10T03:33:13.524Z,16.38
2018-08-10T03:34:13.767Z,16.45
2018-08-10T03:35:14.010Z,16.33
2018-08-10T03:36:14.253Z,16.39
2018-08-10T03:37:14.494Z,16.35
2018-08-10T03:38:14.735Z,16.35
2018-08-10T03:39:14.982Z,16.41
2018-08-10T03:40:15.219Z,16.38
2018-08-10T03:41:15.462Z,16.41
2018-08-10T03:42:15.707Z,16.45
2018-08-10T03:43:15.949Z,16.35
2018-08-10T03:44:16.213Z,16.57
2018-08-10T03:45:16.434Z,16.60
2018-08-10T03:46:16.676Z,16.64
2018-08-10T03:47:16.918Z,16.63
2018-08-10T03:48:17.165Z,16.63
2018-08-10T03:49:17.407Z,16.64
2018-08-10T03:50:17.648Z,16.61
2018-08-10T03:51:17.894Z,16.63
2018-08-10T03:52:18.136Z,16.66
2018-08-10T03:53:18.377Z,16.61
2018-08-10T03:54:18.620Z,16.60
2018-08-10T03:55:18.866Z,16.64
2018-08-10T03:56:19.113Z,16.64
2018-08-10T03:57:19.350Z,16.60
2018-08-10T03:58:19.595Z,16.57
2018-08-10T03:59:19.834Z,16.60
2018-08-10T04:00:20.076Z,16.58
2018-08-10T04:01:20.319Z,16.57
2018-08-10T04:02:20.560Z,16.60
2018-08-10T04:03:20.804Z,16.58
2018-08-10T04:04:21.043Z,16.58
2018-08-10T04:05:21.285Z,16.66
2018-08-10T04:06:21.527Z,16.46
2018-08-10T04:07:21.768Z,16.61
2018-08-10T04:08:22.011Z,16.61
2018-08-10T04:09:22.251Z,16.66
2018-08-10T04:10:22.494Z,16.63
2018-08-10T04:11:22.736Z,16.56
2018-08-10T04:12:22.979Z,16.56
2018-08-10T04:13:23.220Z,16.50
2018-08-10T04:14:23.462Z,16.61
2018-08-10T04:15:23.704Z,16.58
2018-08-10T04:16:23.946Z,16.60
2018-08-10T04:17:24.189Z,16.57
2018-08-10T04:18:24.431Z,16.63
2018-08-10T04:19:24.674Z,16.57
2018-08-10T04:20:24.916Z,16.60
2018-08-10T04:21:25.159Z,16.56
2018-08-10T04:22:25.402Z,16.48
2018-08-10T04:23:25.647Z,16.57
2018-08-10T04:24:25.890Z,16.48
2018-08-10T04:25:26.130Z,16.43
2018-08-10T04:26:26.372Z,16.43
2018-08-10T04:27:26.651Z,16.46
2018-08-10T04:28:26.858Z,16.49
2018-08-10T04:29:27.121Z,16.42
2018-08-10T04:30:27.346Z,16.39
2018-08-10T04:31:27.588Z,16.46
2018-08-10T04:32:27.829Z,16.42
2018-08-10T04:33:28.072Z,16.41
2018-08-10T04:34:28.314Z,16.43
2018-08-10T04:35:28.556Z,16.38
2018-08-10T04:36:28.805Z,16.38
2018-08-10T04:37:29.041Z,16.38
2018-08-10T04:38:29.291Z,16.33
2018-08-10T04:39:29.526Z,16.28
2018-08-10T04:40:29.770Z,16.23
2018-08-10T04:41:30.010Z,16.14
2018-08-10T04:42:30.252Z,16.20
2018-08-10T04:43:30.491Z,16.20
2018-08-10T04:44:30.734Z,16.11
2018-08-10T04:45:30.979Z,16.08
2018-08-10T04:46:31.218Z,16.09
2018-08-10T04:47:31.464Z,16.04
2018-08-10T04:48:31.703Z,16.04
2018-08-10T04:49:31.945Z,16.02
2018-08-10T04:50:32.184Z,15.94
2018-08-10T04:51:32.430Z,15.90
2018-08-10T04:52:32.670Z,16.08
2018-08-10T04:53:32.912Z,15.90
2018-08-10T04:54:33.158Z,15.90
2018-08-10T04:55:33.434Z,15.97
2018-08-10T04:56:33.640Z,15.97
2018-08-10T04:57:33.882Z,15.92
2018-08-10T04:58:34.123Z,15.86
2018-08-10T04:59:34.363Z,15.83
2018-08-10T05:00:34.595Z,15.89
2018-08-10T05:01:34.853Z,15.89
2018-08-10T05:02:35.095Z,15.93
2018-08-10T05:03:35.391Z,16.04
2018-08-10T05:04:35.580Z,16.04
2018-08-10T05:05:35.820Z,16.02
2018-08-10T05:06:36.064Z,15.94
2018-08-10T05:07:36.305Z,16.00
2018-08-10T05:08:36.549Z,16.00
2018-08-10T05:09:36.788Z,16.07
2018-08-10T05:10:37.030Z,15.94
2018-08-10T05:11:37.275Z,15.90
2018-08-10T05:12:37.514Z,15.94
2018-08-10T05:13:37.759Z,15.92
2018-08-10T05:14:38.001Z,15.92
2018-08-10T05:15:38.297Z,15.96
2018-08-10T05:16:38.484Z,15.93
2018-08-10T05:17:38.728Z,15.92
2018-08-10T05:18:38.969Z,15.97
2018-08-10T05:19:39.210Z,16.01
2018-08-10T05:20:39.450Z,16.07
2018-08-10T05:21:39.691Z,16.02
2018-08-10T05:22:39.933Z,16.11
2018-08-10T05:23:40.175Z,16.07
2018-08-10T05:24:40.416Z,16.24
2018-08-10T05:25:40.660Z,16.24
2018-08-10T05:26:40.903Z,16.31
2018-08-10T05:27:41.142Z,16.35
2018-08-10T05:28:41.384Z,16.41
2018-08-10T05:29:41.627Z,16.42
2018-08-10T05:30:41.869Z,16.56
2018-08-10T05:31:42.150Z,16.49
2018-08-10T05:32:42.354Z,16.63
2018-08-10T05:33:42.597Z,16.52
2018-08-10T05:34:42.842Z,16.45
2018-08-10T05:35:43.082Z,16.53
2018-08-10T05:36:43.323Z,16.53
2018-08-10T05:37:43.569Z,16.38
2018-08-10T05:38:43.810Z,16.48
2018-08-10T05:39:44.052Z,16.41
2018-08-10T05:40:44.295Z,16.41
2018-08-10T05:41:44.540Z,16.60
2018-08-10T05:42:44.780Z,16.53
2018-08-10T05:43:45.023Z,16.52
2018-08-10T05:44:45.265Z,16.52
2018-08-10T05:45:45.507Z,16.48
2018-08-10T05:46:45.787Z,16.38
2018-08-10T05:47:45.993Z,16.39
2018-08-10T05:48:46.235Z,16.27
2018-08-10T05:49:46.481Z,16.25
2018-08-10T05:50:46.720Z,16.27
2018-08-10T05:51:46.965Z,16.23
2018-08-10T05:52:47.205Z,16.25
2018-08-10T05:53:47.449Z,16.24
2018-08-10T05:54:47.691Z,16.21
2018-08-10T05:55:47.932Z,16.24
2018-08-10T05:56:48.175Z,16.25
2018-08-10T05:57:48.417Z,16.14
2018-08-10T05:58:48.660Z,16.25
2018-08-10T05:59:48.906Z,16.38
2018-08-10T06:00:49.182Z,16.33
2018-08-10T06:01:49.388Z,16.38
2018-08-10T06:02:49.630Z,16.39
2018-08-10T06:03:50.008Z,16.43
2018-08-10T06:04:50.117Z,16.49
2018-08-10T06:05:50.363Z,16.52
2018-08-10T06:06:50.603Z,16.38
2018-08-10T06:07:50.846Z,16.41
2018-08-10T06:08:51.090Z,16.31
2018-08-10T06:09:51.333Z,16.24
2018-08-10T06:10:51.575Z,16.41
2018-08-10T06:11:51.821Z,16.42
2018-08-10T06:12:52.061Z,16.49
2018-08-10T06:13:52.303Z,16.34
2018-08-10T06:14:52.546Z,16.34
2018-08-10T06:15:52.790Z,16.28
2018-08-10T06:16:53.033Z,16.23
2018-08-10T06:17:53.277Z,16.20
2018-08-10T06:18:53.519Z,16.11
2018-08-10T06:19:53.791Z,16.02
2018-08-10T06:20:54.005Z,16.01
2018-08-10T06:21:54.249Z,16.08
2018-08-10T06:22:54.533Z,15.93
2018-08-10T06:23:54.735Z,16.02
2018-08-10T06:24:55.053Z,15.97
2018-08-10T06:25:55.221Z,15.94
2018-08-10T06:26:55.462Z,16.00
2018-08-10T06:27:55.800Z,15.94
2018-08-10T06:28:55.947Z,15.87
2018-08-10T06:29:56.190Z,15.90
2018-08-10T06:30:56.434Z,15.93
2018-08-10T06:31:56.674Z,16.08
2018-08-10T06:32:56.920Z,16.24
2018-08-10T06:33:57.251Z,16.20
2018-08-10T06:34:57.406Z,16.17
2018-08-10T06:35:57.645Z,16.17
2018-08-10T06:36:57.889Z,16.14
2018-08-10T06:37:58.130Z,16.25
2018-08-10T06:38:58.374Z,16.30
2018-08-10T06:39:58.621Z,16.21
2018-08-10T06:40:58.859Z,16.20
2018-08-10T06:41:59.101Z,16.20
2018-08-10T06:42:59.343Z,16.33
2018-08-10T06:43:59.591Z,16.35
2018-08-10T06:44:59.848Z,16.46
2018-08-10T06:46:00.070Z,16.35
2018-08-10T06:47:00.315Z,16.52
2018-08-10T06:48:00.562Z,16.41
2018-08-10T06:49:00.802Z,16.58
2018-08-10T06:50:01.044Z,16.63
2018-08-10T06:51:01.412Z,16.49
2018-08-10T06:52:01.533Z,16.41
2018-08-10T06:53:01.775Z,16.46
2018-08-10T06:54:02.021Z,16.48
2018-08-10T06:55:02.266Z,16.35
2018-08-10T06:56:02.539Z,16.56
2018-08-10T06:57:02.795Z,16.83
2018-08-10T06:58:03.017Z,16.91
2018-08-10T06:59:03.257Z,16.89
2018-08-10T07:00:03.505Z,16.78
2018-08-10T07:01:03.833Z,17.89
2018-08-10T07:02:03.989Z,18.51
2018-08-10T07:03:04.235Z,17.89
2018-08-10T07:04:04.474Z,17.52
2018-08-10T07:05:04.716Z,17.22
2018-08-10T07:06:04.958Z,17.01
2018-08-10T07:07:05.230Z,16.91
2018-08-10T07:08:05.476Z,17.43
2018-08-10T07:09:05.722Z,18.88
2018-08-10T07:10:05.961Z,19.43
2018-08-10T07:11:06.210Z,19.69
2018-08-10T07:12:06.448Z,19.83
2018-08-10T07:13:06.774Z,20.10
2018-08-10T07:14:06.931Z,20.54
2018-08-10T07:15:07.165Z,20.82
2018-08-10T07:16:07.409Z,20.98
2018-08-10T07:17:07.674Z,21.35
2018-08-10T07:18:07.894Z,21.28
2018-08-10T07:19:08.139Z,21.50
2018-08-10T07:20:08.395Z,20.98
2018-08-10T07:21:08.646Z,20.21
2018-08-10T07:22:08.901Z,20.39
2018-08-10T07:23:09.144Z,20.13
2018-08-10T07:24:09.389Z,20.17
2018-08-10T07:25:09.634Z,19.25
2018-08-10T07:26:09.881Z,18.32
2018-08-10T07:27:10.150Z,17.81
2018-08-10T07:28:10.371Z,17.56
2018-08-10T07:29:10.608Z,17.41
2018-08-10T07:30:10.888Z,18.52
2018-08-10T07:31:11.089Z,19.51
2018-08-10T07:32:11.334Z,18.66
2018-08-10T07:33:11.580Z,19.08
2018-08-10T07:34:11.821Z,20.02
2018-08-10T07:35:12.051Z,20.72
2018-08-10T07:36:12.307Z,21.13
2018-08-10T07:37:12.558Z,22.12
2018-08-10T07:38:21.463Z,22.40
2018-08-10T07:39:13.161Z,22.98
2018-08-10T07:40:13.449Z,21.38
2018-08-10T07:41:13.656Z,19.54
2018-08-10T07:42:13.905Z,20.23
2018-08-10T07:43:14.176Z,21.17
2018-08-10T07:44:14.428Z,21.83
2018-08-10T07:45:14.676Z,22.30
2018-08-10T07:46:14.920Z,22.91
2018-08-10T07:47:15.166Z,22.85
2018-08-10T07:48:15.413Z,22.79
2018-08-10T07:49:15.657Z,22.57
2018-08-10T07:50:15.904Z,22.12
2018-08-10T07:51:16.148Z,22.62
2018-08-10T07:52:16.453Z,22.30
2018-08-10T07:53:16.644Z,22.35
2018-08-10T07:54:16.890Z,22.47
2018-08-10T07:55:17.137Z,23.00
2018-08-10T07:56:17.384Z,23.33
2018-08-10T07:57:17.631Z,22.88
2018-08-10T07:58:17.879Z,22.65
2018-08-10T07:59:18.126Z,23.42
2018-08-10T08:00:18.376Z,22.85
2018-08-10T08:01:18.626Z,21.04
2018-08-10T08:02:18.868Z,20.11
2018-08-10T08:03:19.130Z,19.61
2018-08-10T08:04:19.363Z,19.21
2018-08-10T08:05:19.609Z,20.43
2018-08-10T08:06:19.856Z,21.80
2018-08-10T08:07:20.094Z,22.73
2018-08-10T08:08:20.337Z,22.97
2018-08-10T08:09:20.582Z,21.65
2018-08-10T08:10:20.852Z,20.50
2018-08-10T08:11:21.076Z,21.44
2018-08-10T08:12:21.325Z,22.31
2018-08-10T08:13:21.571Z,22.06
2018-08-10T08:14:21.819Z,21.42
2018-08-10T08:15:22.060Z,20.42
2018-08-10T08:16:22.305Z,20.42
2018-08-10T08:17:22.553Z,20.17
2018-08-10T08:18:22.801Z,20.02
2018-08-10T08:19:23.100Z,20.72
2018-08-10T08:20:23.335Z,22.33
2018-08-10T08:21:23.540Z,23.20
2018-08-10T08:22:23.788Z,24.27
2018-08-10T08:23:24.034Z,24.16
2018-08-10T08:24:24.282Z,22.52
2018-08-10T08:25:24.523Z,23.40
2018-08-10T08:26:24.770Z,23.39
2018-08-10T08:27:25.016Z,23.31
2018-08-10T08:28:25.262Z,23.36
2018-08-10T08:29:25.510Z,23.90
2018-08-10T08:30:25.760Z,23.15
2018-08-10T08:31:26.005Z,23.47
2018-08-10T08:32:26.251Z,22.40
2018-08-10T08:33:26.501Z,22.43
2018-08-10T08:34:26.748Z,23.63
2018-08-10T08:35:26.995Z,22.94
2018-08-10T08:36:27.245Z,23.12
2018-08-10T08:37:27.491Z,23.27
2018-08-10T08:38:27.843Z,23.68
2018-08-10T08:39:27.986Z,23.04
2018-08-10T08:40:28.235Z,22.42
2018-08-10T08:41:28.484Z,22.14
2018-08-10T08:42:28.732Z,23.43
2018-08-10T08:43:28.979Z,23.35
2018-08-10T08:44:29.227Z,23.31
2018-08-10T08:45:29.634Z,24.27
2018-08-10T08:46:29.888Z,23.42
2018-08-10T08:47:29.976Z,21.83
2018-08-10T08:48:30.224Z,21.03
2018-08-10T08:49:30.473Z,22.40
2018-08-10T08:50:30.723Z,23.02
2018-08-10T08:51:30.972Z,24.00
2018-08-10T08:52:31.220Z,25.05
2018-08-10T08:53:31.469Z,25.52
2018-08-10T08:54:31.718Z,23.28
2018-08-10T08:55:31.966Z,24.32
2018-08-10T08:56:32.218Z,25.17
2018-08-10T08:57:32.466Z,25.27
2018-08-10T08:58:32.717Z,23.66
2018-08-10T08:59:32.963Z,24.35
2018-08-10T09:00:33.213Z,24.85
2018-08-10T09:01:33.462Z,24.95
2018-08-10T09:02:33.711Z,25.98
2018-08-10T09:03:33.960Z,26.35
2018-08-10T09:04:34.211Z,26.07
2018-08-10T09:05:34.458Z,26.60
2018-08-10T09:06:34.707Z,27.17
2018-08-10T09:07:34.970Z,26.09
2018-08-10T09:08:35.211Z,25.38
2018-08-10T09:09:35.463Z,23.90
2018-08-10T09:10:35.714Z,23.32
2018-08-10T09:11:35.965Z,24.78
2018-08-10T09:12:36.213Z,25.90
2018-08-10T09:13:36.463Z,26.35
2018-08-10T09:14:36.718Z,26.66
2018-08-10T09:15:36.973Z,26.15
2018-08-10T09:16:37.221Z,25.77
2018-08-10T09:17:37.584Z,25.75
2018-08-10T09:18:37.720Z,25.80
2018-08-10T09:19:37.971Z,26.54
2018-08-10T09:20:38.221Z,26.63
2018-08-10T09:21:38.474Z,25.83
2018-08-10T09:22:38.726Z,25.55
2018-08-10T09:23:38.975Z,25.99
2018-08-10T09:24:39.223Z,25.75
2018-08-10T09:25:39.473Z,25.54
2018-08-10T09:26:39.711Z,25.36
2018-08-10T09:27:39.976Z,25.23
2018-08-10T09:28:40.227Z,25.25
2018-08-10T09:29:40.478Z,25.60
2018-08-10T09:30:40.729Z,24.31
2018-08-10T09:31:40.981Z,24.68
2018-08-10T09:32:41.231Z,24.77
2018-08-10T09:33:41.483Z,25.14
2018-08-10T09:34:41.734Z,25.00
2018-08-10T09:35:41.988Z,25.52
2018-08-10T09:36:42.227Z,25.58
2018-08-10T09:37:42.474Z,26.09
2018-08-10T09:38:42.727Z,25.99
2018-08-10T09:39:42.977Z,26.80
2018-08-10T09:40:43.236Z,26.60
2018-08-10T09:41:43.479Z,26.97
2018-08-10T09:42:43.728Z,25.60
2018-08-10T09:43:43.983Z,23.66
2018-08-10T09:44:44.235Z,22.95
2018-08-10T09:45:44.490Z,22.14
2018-08-10T09:46:44.744Z,22.12
2018-08-10T09:47:44.989Z,21.75
2018-08-10T09:48:45.242Z,22.15
2018-08-10T09:49:45.489Z,24.47
2018-08-10T09:50:45.739Z,25.43
2018-08-10T09:51:45.997Z,25.32
2018-08-10T09:52:46.239Z,24.22
2018-08-10T09:53:46.493Z,23.39
2018-08-10T09:54:46.744Z,25.13
2018-08-10T09:55:46.993Z,25.40
2018-08-10T09:56:47.244Z,26.25
2018-08-10T09:57:47.504Z,27.10
2018-08-10T09:58:47.745Z,26.76
2018-08-10T09:59:48.043Z,26.58
2018-08-10T10:00:48.246Z,26.97
2018-08-10T10:01:48.499Z,26.81
2018-08-10T10:02:48.749Z,28.09
2018-08-10T10:03:49.003Z,26.82
2018-08-10T10:04:49.254Z,26.21
2018-08-10T10:05:49.507Z,25.77
2018-08-10T10:06:49.759Z,26.66
2018-08-10T10:07:50.010Z,27.00
2018-08-10T10:08:50.261Z,26.97
2018-08-10T10:09:50.512Z,27.22
2018-08-10T10:10:50.764Z,27.51
2018-08-10T10:11:51.018Z,28.06
2018-08-10T10:12:51.272Z,27.70
2018-08-10T10:13:51.526Z,27.04
2018-08-10T10:14:51.779Z,26.82
2018-08-10T10:15:52.032Z,26.63
2018-08-10T10:16:52.286Z,26.20
2018-08-10T10:17:52.541Z,25.73
2018-08-10T10:18:52.794Z,25.73
2018-08-10T10:19:53.046Z,26.43
2018-08-10T10:20:53.307Z,27.04
2018-08-10T10:21:53.551Z,27.37
2018-08-10T10:22:53.805Z,26.97
2018-08-10T10:23:54.056Z,27.46
2018-08-10T10:24:54.310Z,26.67
2018-08-10T10:25:54.565Z,26.30
2018-08-10T10:26:54.816Z,24.68
2018-08-10T10:27:55.069Z,23.53
2018-08-10T10:28:55.322Z,22.92
2018-08-10T10:29:55.574Z,22.88
2018-08-10T10:30:55.827Z,22.92
2018-08-10T10:31:56.079Z,22.92
2018-08-10T10:32:56.332Z,22.83
2018-08-10T10:33:56.583Z,23.95
2018-08-10T10:34:56.833Z,23.55
2018-08-10T10:35:57.083Z,23.40
2018-08-10T10:36:57.334Z,22.88
2018-08-10T10:37:57.589Z,24.35
2018-08-10T10:38:57.835Z,23.75
2018-08-10T10:39:58.085Z,23.20
2018-08-10T10:40:58.338Z,22.51
2018-08-10T10:41:58.588Z,22.62
2018-08-10T10:42:58.838Z,23.58
2018-08-10T10:43:59.089Z,25.36
2018-08-10T10:44:59.338Z,24.61
2018-08-10T10:45:59.587Z,25.03
2018-08-10T10:46:59.836Z,25.00
2018-08-10T10:48:00.085Z,24.67
2018-08-10T10:49:00.337Z,26.45
2018-08-10T10:50:00.584Z,26.13
2018-08-10T10:51:00.844Z,27.99
2018-08-10T10:52:01.091Z,27.99
2018-08-10T10:53:01.341Z,28.27
2018-08-10T10:54:01.594Z,26.10
2018-08-10T10:55:01.847Z,26.18
2018-08-10T10:56:02.100Z,26.06
2018-08-10T10:57:02.351Z,25.21
2018-08-10T10:58:02.604Z,24.18
2018-08-10T10:59:02.852Z,24.18
2018-08-10T11:00:03.107Z,23.87
2018-08-10T11:01:03.357Z,23.28
2018-08-10T11:02:03.609Z,24.08
2018-08-10T11:03:03.860Z,25.76
2018-08-10T11:04:04.111Z,27.25
2018-08-10T11:05:04.362Z,28.09
2018-08-10T11:06:04.614Z,27.70
2018-08-10T11:07:04.867Z,27.79
2018-08-10T11:08:05.117Z,27.65
2018-08-10T11:09:05.368Z,27.87
2018-08-10T11:10:05.620Z,27.06
2018-08-10T11:11:05.875Z,25.03
2018-08-10T11:12:06.124Z,25.05
2018-08-10T11:13:06.374Z,24.24
2018-08-10T11:14:06.626Z,23.65
2018-08-10T11:15:06.878Z,23.40
2018-08-10T11:16:07.128Z,24.61
2018-08-10T11:17:07.380Z,24.49
2018-08-10T11:18:07.687Z,24.46
2018-08-10T11:19:07.885Z,24.18
2018-08-10T11:20:08.138Z,25.15
2018-08-10T11:21:08.387Z,23.95
2018-08-10T11:22:08.640Z,25.67
2018-08-10T11:23:08.892Z,26.33
2018-08-10T11:24:09.232Z,26.55
2018-08-10T11:25:09.480Z,27.28
2018-08-10T11:26:09.766Z,27.78
2018-08-10T11:27:09.916Z,28.78
2018-08-10T11:28:10.154Z,28.61
2018-08-10T11:29:10.399Z,28.07
2018-08-10T11:30:10.674Z,28.07
2018-08-10T11:31:10.901Z,28.36
2018-08-10T11:32:11.155Z,28.39
2018-08-10T11:33:11.405Z,28.59
2018-08-10T11:34:11.657Z,29.18
2018-08-10T11:35:11.910Z,28.41
2018-08-10T11:36:12.165Z,28.07
2018-08-10T11:37:12.416Z,26.76
2018-08-10T11:38:12.669Z,24.96
2018-08-10T11:39:12.922Z,25.95
2018-08-10T11:40:13.180Z,27.31
2018-08-10T11:41:13.432Z,26.51
2018-08-10T11:42:13.694Z,26.54
2018-08-10T11:43:13.947Z,25.79
2018-08-10T11:44:14.203Z,24.21
2018-08-10T11:45:14.557Z,23.47
2018-08-10T11:46:14.805Z,23.27
2018-08-10T11:47:15.084Z,22.97
2018-08-10T11:48:15.345Z,22.77
2018-08-10T11:49:15.602Z,23.25
2018-08-10T11:50:15.849Z,23.66
2018-08-10T11:51:16.101Z,23.51
2018-08-10T11:52:16.416Z,23.51
2018-08-10T11:53:16.671Z,23.68
2018-08-10T11:54:16.983Z,23.47
2018-08-10T11:55:17.237Z,25.18
2018-08-10T11:56:17.575Z,25.08
2018-08-10T11:57:17.851Z,24.69
2018-08-10T11:58:18.157Z,24.27
2018-08-10T11:59:18.413Z,23.66
2018-08-10T12:00:18.731Z,23.42
2018-08-10T12:01:18.987Z,23.28
2018-08-10T12:02:19.254Z,24.40
2018-08-10T12:03:19.506Z,24.93
2018-08-10T12:04:19.868Z,24.47
2018-08-10T12:05:20.244Z,24.18
2018-08-10T12:06:20.630Z,24.03
2018-08-10T12:07:20.742Z,23.90
2018-08-10T12:08:20.993Z,24.30
2018-08-10T12:09:21.246Z,26.05
2018-08-10T12:10:21.491Z,27.31
2018-08-10T12:11:21.867Z,27.03
2018-08-10T12:12:22.260Z,27.24
2018-08-10T12:13:22.505Z,27.63
2018-08-10T12:14:22.761Z,28.31
2018-08-10T12:15:23.011Z,29.26
2018-08-10T12:16:23.257Z,29.55
2018-08-10T12:17:23.515Z,29.46
2018-08-10T12:18:23.760Z,29.61
2018-08-10T12:19:24.013Z,30.08
2018-08-10T12:20:24.265Z,27.84
2018-08-10T12:21:24.514Z,27.18
2018-08-10T12:22:24.768Z,26.58
2018-08-10T12:23:25.087Z,27.37
2018-08-10T12:24:25.376Z,28.51
2018-08-10T12:25:25.628Z,29.57
2018-08-10T12:26:25.881Z,29.18
2018-08-10T12:27:26.135Z,28.85
2018-08-10T12:28:26.387Z,28.95
2018-08-10T12:29:26.639Z,28.64
2018-08-10T12:30:26.894Z,27.93
2018-08-10T12:31:27.144Z,26.97
2018-08-10T12:32:27.401Z,25.60
2018-08-10T12:33:27.751Z,25.77
2018-08-10T12:34:28.127Z,25.54
2018-08-10T12:35:28.540Z,27.07
2018-08-10T12:36:28.793Z,27.94
2018-08-10T12:37:29.046Z,27.74
2018-08-10T12:38:29.437Z,28.25
2018-08-10T12:39:29.691Z,27.94
2018-08-10T12:40:29.993Z,26.48
2018-08-10T12:41:30.287Z,27.14
2018-08-10T12:42:30.543Z,28.07
2018-08-10T12:43:30.960Z,27.84
2018-08-10T12:44:31.216Z,28.55
2018-08-10T12:45:31.467Z,29.33
2018-08-10T12:46:31.850Z,28.93
2018-08-10T12:47:32.090Z,28.17
2018-08-10T12:48:32.345Z,27.65
2018-08-10T12:49:32.598Z,27.96
2018-08-10T12:50:32.921Z,28.11
2018-08-10T12:51:33.107Z,28.04
2018-08-10T12:52:33.362Z,26.37
2018-08-10T12:53:33.616Z,25.06
2018-08-10T12:54:33.867Z,24.47
2018-08-10T12:55:34.123Z,24.15